Time;durP1;ratioP1;P1;durP2;ratioP2;P2;SDS_P1;SDS_P2;PMS_P1;PMS_P2;Temp;Humidity;BMP_temperature;BMP_pressure;BME280_temperature;BME280_humidity;BME280_pressure;Samples;Min_cycle;Max_cycle;Signal;HPM_P1;HPM_P2
2021/11/12 00:02:08;;;;;;;;;61.25;50.00;;;;;8.14;67.38;101449.94;5017951;28;46838;-84
2021/11/12 00:15:12;;;;;;;;;65.50;50.75;;;;;8.00;67.67;101452.31;4955933;28;47338;-81
2021/11/12 00:17:39;;;;;;;;;64.25;52.25;;;;;8.04;67.70;101469.53;4956099;28;46091;-85
2021/11/12 00:20:06;;;;;;;;;65.75;52.00;;;;;8.04;67.80;101468.69;4957615;28;45580;-79
2021/11/12 00:22:32;;;;;;;;;62.00;49.50;;;;;7.80;67.88;101421.97;4958196;28;45744;-78
2021/11/12 00:25:01;;;;;;;;;60.00;47.25;;;;;7.97;67.92;101455.09;4957312;28;45754;-80
2021/11/12 00:27:28;;;;;;;;;67.00;52.75;;;;;7.95;67.61;101465.59;4956477;28;46201;-78
2021/11/12 00:45:27;;;;;;;;;57.00;46.00;;;;;7.77;68.13;101442.97;4930446;28;45678;-87
2021/11/12 00:55:38;;;;;;;;;58.00;46.00;;;;;7.73;68.14;101443.16;4958838;28;45791;-79
2021/11/12 00:58:04;;;;;;;;;57.75;46.00;;;;;7.73;68.15;101445.78;4957266;28;45759;-79
2021/11/12 01:00:29;;;;;;;;;49.50;42.50;;;;;7.71;68.24;101450.22;4956638;28;45717;-77
2021/11/12 01:02:55;;;;;;;;;58.00;44.50;;;;;7.68;67.98;101443.38;4955505;28;45701;-76
2021/11/12 01:05:20;;;;;;;;;59.25;46.00;;;;;7.55;68.11;101432.69;4955469;28;45599;-81
2021/11/12 01:07:46;;;;;;;;;60.50;47.25;;;;;7.57;68.30;101448.22;4955158;28;45975;-82
2021/11/12 01:10:14;;;;;;;;;58.25;46.25;;;;;7.59;68.21;101449.03;4955296;28;45643;-83
2021/11/12 01:12:41;;;;;;;;;54.00;43.50;;;;;7.50;68.36;101424.19;4955607;28;45652;-84
2021/11/12 01:15:12;;;;;;;;;54.75;44.50;;;;;7.63;68.38;101440.13;4995625;28;46362;-85
2021/11/12 01:17:38;;;;;;;;;54.25;44.00;;;;;7.62;68.38;101434.97;5016025;28;47136;-79
2021/11/12 01:20:05;;;;;;;;;55.25;44.50;;;;;7.55;68.41;101422.25;5016098;28;45641;-82
2021/11/12 01:22:31;;;;;;;;;56.00;43.00;;;;;7.50;68.30;101405.94;5016385;28;45854;-80
2021/11/12 01:24:56;;;;;;;;;64.00;44.50;;;;;7.55;68.33;101414.44;5016061;28;45658;-80
2021/11/12 01:27:22;;;;;;;;;56.25;46.75;;;;;7.61;68.47;101428.09;5015568;28;45780;-81
2021/11/12 01:29:47;;;;;;;;;59.00;45.00;;;;;7.58;68.44;101421.25;5019222;28;45682;-80
2021/11/12 01:32:19;;;;;;;;;57.50;46.00;;;;;7.64;68.59;101428.78;5015487;28;45890;-79
2021/11/12 01:34:47;;;;;;;;;53.25;43.25;;;;;7.64;68.20;101420.13;5015746;28;46668;-80
2021/11/12 01:37:15;;;;;;;;;56.50;45.00;;;;;7.54;68.37;101398.84;5015677;28;46103;-78
2021/11/12 01:39:41;;;;;;;;;55.25;43.50;;;;;7.65;68.42;101411.38;5014612;28;45682;-79
2021/11/12 01:42:06;;;;;;;;;57.75;44.75;;;;;7.66;68.42;101416.53;4998135;28;45803;-86
2021/11/12 01:44:37;;;;;;;;;56.00;44.75;;;;;7.65;68.42;101406.16;5016106;28;45426;-79
2021/11/12 01:49:41;;;;;;;;;59.00;46.25;;;;;7.61;68.48;101412.44;5015225;28;45583;-81
2021/11/12 01:59:32;;;;;;;;;59.50;46.00;;;;;7.64;68.43;101404.47;5015941;28;45888;-80
2021/11/12 02:02:07;;;;;;;;;58.75;47.00;;;;;7.65;68.46;101403.56;5020787;28;45493;-79
2021/11/12 02:04:33;;;;;;;;;57.75;45.00;;;;;7.62;68.67;101398.47;5021009;28;46509;-77
2021/11/12 02:06:59;;;;;;;;;59.00;47.25;;;;;7.57;68.75;101390.88;5020923;28;45568;-77
2021/11/12 02:09:26;;;;;;;;;57.00;45.50;;;;;7.56;68.96;101397.00;5018353;28;45550;-76
2021/11/12 02:12:16;;;;;;;;;62.00;45.00;;;;;7.49;69.03;101387.78;5016669;28;45755;-80
2021/11/12 02:14:44;;;;;;;;;62.00;48.00;;;;;7.41;69.32;101385.50;5018605;28;46490;-79
2021/11/12 02:17:15;;;;;;;;;63.75;48.00;;;;;7.31;69.44;101389.44;5017496;28;46449;-84
2021/11/12 02:20:20;;;;;;;;;63.00;47.25;;;;;7.29;69.25;101386.06;5018939;28;45796;-80
2021/11/12 02:22:38;;;;;;;;;57.00;47.00;;;;;7.29;69.64;101385.25;5019442;28;46489;-82
2021/11/12 02:25:16;;;;;;;;;59.25;46.00;;;;;7.28;69.69;101373.97;5023264;28;46338;-79
2021/11/12 02:30:08;;;;;;;;;57.50;46.50;;;;;7.28;69.53;101370.50;5023992;28;45839;-80
2021/11/12 02:32:34;;;;;;;;;51.25;42.00;;;;;7.28;69.60;101379.19;5029037;28;45465;-83
2021/11/12 02:35:02;;;;;;;;;52.25;39.50;;;;;7.28;69.45;101375.72;5029422;28;45539;-76
2021/11/12 02:37:31;;;;;;;;;58.25;44.00;;;;;7.33;69.57;101381.56;5028191;28;45562;-79
2021/11/12 02:39:57;;;;;;;;;62.50;45.50;;;;;7.33;69.53;101374.59;5020749;28;45910;-81
2021/11/12 02:42:23;;;;;;;;;66.50;49.00;;;;;7.36;69.41;101371.84;5019833;28;45727;-78
2021/11/12 02:44:50;;;;;;;;;49.25;42.25;;;;;7.39;69.36;101378.69;5019176;28;45517;-76
2021/11/12 02:47:17;;;;;;;;;53.50;43.75;;;;;7.39;69.39;101366.50;5018401;28;45521;-80
2021/11/12 02:49:45;;;;;;;;;49.75;43.25;;;;;7.35;69.61;101364.09;5018438;28;45868;-81
2021/11/12 02:52:11;;;;;;;;;60.75;47.75;;;;;7.41;69.65;101375.09;5000359;28;45685;-81
2021/11/12 02:54:41;;;;;;;;;57.00;47.25;;;;;7.39;69.54;101370.88;5016644;28;47664;-77
2021/11/12 02:57:07;;;;;;;;;55.50;46.00;;;;;7.43;69.52;101369.81;5017969;28;46220;-81
2021/11/12 02:59:32;;;;;;;;;60.00;44.00;;;;;7.07;69.61;101323.63;5017948;28;45518;-78
2021/11/12 03:02:04;;;;;;;;;59.25;44.00;;;;;7.34;69.63;101359.81;5017904;28;45827;-79
2021/11/12 03:04:30;;;;;;;;;56.75;44.00;;;;;7.36;69.84;101365.78;5017687;28;46266;-81
2021/11/12 03:06:57;;;;;;;;;61.00;45.00;;;;;7.37;69.92;101368.31;5017157;28;47117;-86
2021/11/12 03:09:25;;;;;;;;;55.25;43.75;;;;;7.34;69.81;101365.84;5017648;28;45663;-78
2021/11/12 03:15:12;;;;;;;;;52.50;42.75;;;;;7.29;69.77;101367.81;5017504;28;45573;-80
2021/11/12 03:17:39;;;;;;;;;57.00;43.00;;;;;7.18;69.85;101346.59;5016967;28;45536;-78
2021/11/12 03:20:09;;;;;;;;;51.50;42.25;;;;;7.27;69.93;101364.47;5017497;28;46024;-79
2021/11/12 03:22:40;;;;;;;;;42.75;37.25;;;;;7.29;69.94;101369.59;5017420;28;45850;-80
2021/11/12 03:25:09;;;;;;;;;56.00;46.25;;;;;7.23;69.95;101362.91;5017026;28;47337;-76
2021/11/12 03:27:46;;;;;;;;;54.00;44.00;;;;;7.31;69.93;101366.00;5016969;28;46086;-80
2021/11/12 03:30:35;;;;;;;;;55.25;44.75;;;;;7.32;69.82;101352.06;5019229;28;45576;-79
2021/11/12 04:00:38;;;;;;;;;51.75;44.00;;;;;7.27;70.32;101321.91;4927476;28;46211;-78
2021/11/12 05:52:14;;;;;;;;;39.25;33.50;;;;;6.60;70.87;101211.19;4987529;28;45911;-81
2021/11/12 06:00:46;;;;;;;;;36.00;31.50;;;;;6.60;71.16;101211.19;5017055;28;46053;-81
2021/11/12 06:03:12;;;;;;;;;30.25;26.75;;;;;6.60;71.00;101203.41;5015455;28;46507;-82
2021/11/12 06:05:38;;;;;;;;;31.75;26.75;;;;;6.58;70.62;101194.81;5015707;28;45596;-87
2021/11/12 06:08:04;;;;;;;;;34.25;30.50;;;;;6.56;70.99;101188.00;5016807;28;45837;-86
2021/11/12 06:10:29;;;;;;;;;34.50;32.50;;;;;6.60;71.13;101203.41;5017300;28;46345;-85
2021/11/12 06:16:16;;;;;;;;;31.50;27.25;;;;;6.57;70.94;101184.47;5015892;28;45590;-83
2021/11/12 06:18:42;;;;;;;;;31.75;29.25;;;;;6.58;71.11;101179.22;5015192;28;45600;-82
2021/11/12 06:21:09;;;;;;;;;38.00;28.75;;;;;6.57;71.12;101181.88;5015441;28;46039;-85
2021/11/12 06:23:35;;;;;;;;;34.50;30.25;;;;;6.58;70.74;101186.16;5015379;28;45918;-85
2021/11/12 06:26:00;;;;;;;;;35.00;30.75;;;;;6.58;71.08;101189.63;5015368;28;45591;-85
2021/11/12 06:31:49;;;;;;;;;30.50;26.50;;;;;6.47;70.90;101191.88;5013279;28;46165;-87
2021/11/12 06:34:15;;;;;;;;;33.50;30.50;;;;;6.32;71.08;101180.34;5022306;28;46171;-87
2021/11/12 06:36:41;;;;;;;;;27.50;24.25;;;;;6.42;70.98;101192.97;5020753;28;45571;-86
2021/11/12 06:39:08;;;;;;;;;27.25;23.75;;;;;6.43;71.33;101198.09;5017476;28;45829;-86
2021/11/12 06:41:54;;;;;;;;;31.25;24.00;;;;;6.35;71.15;101178.53;5017243;28;46448;-85
2021/11/12 06:44:28;;;;;;;;;82.50;61.50;;;;;6.47;71.49;101196.22;5015796;28;45665;-85
2021/11/12 06:50:14;;;;;;;;;;;;;;;;;;;;;
2021/11/12 06:52:44;;;;;;;;;30.75;26.25;;;;;6.55;71.01;101200.16;5015335;28;75549;-81
2021/11/12 06:55:11;;;;;;;;;30.50;25.50;;;;;6.49;70.81;101194.38;5015756;28;46212;-85
2021/11/12 06:57:38;;;;;;;;;24.00;21.25;;;;;6.52;70.77;101189.91;5014923;28;45609;-87
2021/11/12 07:00:11;;;;;;;;;30.50;23.75;;;;;6.54;71.05;101193.25;5015153;28;45587;-86
2021/11/12 07:02:37;;;;;;;;;24.75;21.50;;;;;6.54;71.34;101190.66;5014535;28;45592;-86
2021/11/12 07:05:04;;;;;;;;;26.50;25.25;;;;;6.55;70.84;101194.09;5014705;28;46071;-85
2021/11/12 07:07:29;;;;;;;;;29.75;26.25;;;;;6.55;71.15;101187.13;5014009;28;45812;-81
2021/11/12 07:09:55;;;;;;;;;25.75;23.75;;;;;6.57;70.90;101190.53;5014116;28;45663;-84
2021/11/12 07:12:22;;;;;;;;;27.00;22.50;;;;;6.56;70.98;101188.00;5014368;28;45625;-79
2021/11/12 07:14:47;;;;;;;;;25.00;23.50;;;;;6.55;70.84;101188.91;5013726;28;46693;-79
2021/11/12 07:17:14;;;;;;;;;31.00;23.00;;;;;6.53;70.73;101193.34;5015521;28;45583;-84
2021/11/12 07:19:41;;;;;;;;;60.00;45.00;;;;;6.54;70.87;101193.25;5000000;28;45823;-87
2021/11/12 07:22:07;;;;;;;;;31.25;23.50;;;;;6.55;71.11;101187.13;5017726;28;45542;-85
2021/11/12 07:24:34;;;;;;;;;24.50;22.75;;;;;6.47;70.68;101176.25;5015700;28;47095;-82
2021/11/12 07:27:00;;;;;;;;;26.50;21.00;;;;;6.58;70.56;101202.63;5014965;28;45691;-76
2021/11/12 07:29:27;;;;;;;;;27.00;23.50;;;;;6.60;70.73;101194.75;4997692;28;45660;-83
2021/11/12 07:31:56;;;;;;;;;29.25;21.50;;;;;6.59;70.79;101183.47;5018324;28;46776;-80
2021/11/12 07:34:24;;;;;;;;;31.00;24.00;;;;;6.60;70.72;101171.31;5017427;28;46197;-80
2021/11/12 07:36:52;;;;;;;;;24.00;21.75;;;;;6.63;70.79;101174.63;5015955;28;45936;-77
2021/11/12 07:39:36;;;;;;;;;27.00;24.00;;;;;6.62;70.86;101166.88;5016758;28;45848;-78
2021/11/12 07:42:15;;;;;;;;;28.25;22.25;;;;;6.63;70.65;101166.81;5016300;28;46874;-78
2021/11/12 07:47:38;;;;;;;;;29.50;24.00;;;;;6.64;70.53;101180.69;4954991;28;45827;-81
2021/11/12 07:50:07;;;;;;;;;25.25;21.25;;;;;6.61;70.39;101160.84;4956116;28;45949;-84
2021/11/12 07:52:35;;;;;;;;;27.75;23.50;;;;;6.67;70.60;101151.91;4956451;28;46474;-81
2021/11/12 07:55:04;;;;;;;;;26.25;22.00;;;;;6.68;70.61;101154.44;4955833;28;46510;-83
2021/11/12 07:57:34;;;;;;;;;25.50;23.50;;;;;6.70;70.54;101152.59;4959025;28;45926;-83
2021/11/12 08:00:01;;;;;;;;;20.75;19.50;;;;;6.62;70.39;101143.47;4944230;28;45638;-81
2021/11/12 08:02:27;;;;;;;;;29.50;26.25;;;;;6.70;70.50;101155.19;4960524;28;46425;-82
2021/11/12 08:04:59;;;;;;;;;24.25;20.50;;;;;6.68;70.39;101158.81;4959858;28;45933;-79
2021/11/12 08:07:26;;;;;;;;;27.75;23.75;;;;;6.72;70.53;101187.22;4957266;28;45653;-85
2021/11/12 08:09:54;;;;;;;;;28.75;24.00;;;;;6.70;70.47;101196.84;4959688;28;45663;-82
2021/11/12 08:12:26;;;;;;;;;25.50;21.50;;;;;6.72;70.46;101212.41;4961863;28;45781;-83
2021/11/12 08:17:54;;;;;;;;;28.50;23.25;;;;;6.66;70.60;101213.53;4921086;28;45854;-82
2021/11/12 08:20:35;;;;;;;;;25.00;20.75;;;;;6.60;70.52;101221.63;4920067;28;45917;-80
2021/11/12 08:23:13;;;;;;;;;27.50;24.00;;;;;6.49;70.56;101184.81;4934478;28;45697;-86
2021/11/12 08:25:46;;;;;;;;;28.00;24.00;;;;;6.58;70.78;101181.81;4956284;28;47338;-85
2021/11/12 08:28:39;;;;;;;;;45.75;33.75;;;;;6.67;70.97;101197.00;4956460;28;45747;-83
2021/11/12 08:31:27;;;;;;;;;26.75;24.00;;;;;6.41;70.81;101136.63;4957347;28;45922;-80
2021/11/12 08:33:57;;;;;;;;;34.00;27.75;;;;;6.67;70.51;101188.34;4957658;28;47444;-85
2021/11/12 08:42:25;;;;;;;;;26.25;24.25;;;;;6.78;70.32;101191.31;4896031;28;45605;-81
2021/11/12 08:45:02;;;;;;;;;28.50;21.00;;;;;6.82;70.24;101186.78;4925288;28;46507;-85
2021/11/12 08:47:39;;;;;;;;;25.25;23.00;;;;;6.78;70.10;101167.03;4924024;28;47328;-84
2021/11/12 08:50:08;;;;;;;;;26.25;25.25;;;;;6.87;70.20;101190.03;4924352;28;46033;-82
2021/11/12 08:52:33;;;;;;;;;32.75;27.25;;;;;6.82;70.07;101179.81;4922327;28;45686;-78
2021/11/12 08:55:04;;;;;;;;;28.00;26.50;;;;;6.93;70.41;101180.16;4914498;28;48488;-80
2021/11/12 08:57:29;;;;;;;;;28.75;25.75;;;;;6.90;70.34;101164.69;4936593;28;46445;-81
2021/11/12 08:59:55;;;;;;;;;29.50;26.50;;;;;6.92;70.00;101167.22;4936513;28;45758;-77
2021/11/12 09:02:26;;;;;;;;;36.75;31.25;;;;;6.99;70.22;101184.25;4937277;28;45574;-79
2021/11/12 09:04:53;;;;;;;;;28.50;27.25;;;;;6.80;70.14;101133.97;4940597;28;45715;-78
2021/11/12 09:07:19;;;;;;;;;34.00;31.75;;;;;7.05;70.30;101184.81;4938628;28;45528;-79
2021/11/12 09:09:54;;;;;;;;;36.75;31.25;;;;;7.00;70.28;101173.78;4935375;28;45590;-82
2021/11/12 09:12:21;;;;;;;;;37.50;27.75;;;;;6.96;70.12;101174.00;4936739;28;45651;-80
2021/11/12 09:14:48;;;;;;;;;32.50;28.50;;;;;7.04;70.10;101192.69;4972046;28;46534;-77
2021/11/12 09:17:16;;;;;;;;;31.25;28.75;;;;;7.06;70.28;101191.72;5016736;28;45653;-77
2021/11/12 09:19:57;;;;;;;;;29.75;25.50;;;;;7.10;70.18;101195.00;5019188;28;45745;-78
2021/11/12 09:22:26;;;;;;;;;41.25;33.50;;;;;7.15;69.98;101193.88;5022173;28;45714;-84
2021/11/12 09:24:51;;;;;;;;;36.50;28.50;;;;;7.13;69.95;101163.59;5020761;28;46771;-88
2021/11/12 09:27:19;;;;;;;;;30.00;26.25;;;;;7.14;70.01;101158.31;5003460;28;45667;-78
2021/11/12 09:29:48;;;;;;;;;32.00;28.25;;;;;7.31;70.15;101175.75;5015296;28;46060;-75
2021/11/12 09:32:15;;;;;;;;;31.00;26.25;;;;;7.31;69.83;101165.31;5014113;28;45898;-74
2021/11/12 09:34:41;;;;;;;;;41.00;32.00;;;;;7.39;69.95;101163.19;4996814;28;45678;-77
2021/11/12 09:37:11;;;;;;;;;36.50;29.25;;;;;7.42;69.78;101154.38;5013803;28;46168;-77
2021/11/12 09:39:40;;;;;;;;;34.50;31.75;;;;;7.45;69.95;101173.28;5014281;28;45736;-77
2021/11/12 09:42:07;;;;;;;;;38.25;32.75;;;;;7.43;69.99;101164.72;5014073;28;45821;-76
2021/11/12 09:44:33;;;;;;;;;41.50;33.00;;;;;7.50;69.67;101166.09;5013829;28;46465;-75
2021/11/12 09:46:59;;;;;;;;;39.75;34.25;;;;;7.55;69.57;101168.50;5013542;28;46505;-75
2021/11/12 09:49:24;;;;;;;;;34.50;29.75;;;;;7.58;69.48;101170.94;5013939;28;45518;-75
2021/11/12 09:51:50;;;;;;;;;38.50;31.00;;;;;7.60;69.48;101169.13;5013357;28;45603;-78
2021/11/12 09:54:16;;;;;;;;;35.00;30.00;;;;;7.60;69.19;101145.66;5013914;28;45603;-75
2021/11/12 09:56:41;;;;;;;;;42.25;31.75;;;;;7.54;69.31;101125.09;5013803;28;46167;-77
2021/11/12 09:59:07;;;;;;;;;38.00;29.00;;;;;7.48;69.46;101108.00;5013648;28;46136;-76
2021/11/12 10:01:36;;;;;;;;;41.75;33.50;;;;;7.52;69.26;101101.69;5013943;28;45688;-79
2021/11/12 10:04:05;;;;;;;;;34.00;29.75;;;;;7.67;69.17;101109.66;5013522;28;47254;-76
2021/11/12 10:06:37;;;;;;;;;37.25;31.25;;;;;7.54;69.11;101092.03;5013173;28;46281;-77
2021/11/12 10:09:12;;;;;;;;;40.50;31.50;;;;;7.69;69.26;101110.44;4996392;28;45674;-76
2021/11/12 10:11:47;;;;;;;;;35.00;29.25;;;;;7.70;69.22;101106.91;4995790;28;45764;-78
2021/11/12 10:14:13;;;;;;;;;37.75;29.00;;;;;7.70;69.05;101106.91;5013247;28;46627;-76
2021/11/12 10:16:42;;;;;;;;;28.00;26.50;;;;;7.71;69.01;101108.59;5013091;28;46258;-76
2021/11/12 10:19:17;;;;;;;;;36.25;29.00;;;;;7.72;69.12;101112.91;5014908;28;45866;-74
2021/11/12 10:21:55;;;;;;;;;33.00;29.25;;;;;7.72;69.42;101118.13;5014977;28;45891;-76
2021/11/12 10:24:30;;;;;;;;;34.00;30.00;;;;;7.79;69.03;101125.53;5014144;28;45686;-77
2021/11/12 10:27:06;;;;;;;;;31.00;30.00;;;;;7.83;68.96;101111.41;5014386;28;46970;-77
2021/11/12 10:29:35;;;;;;;;;40.00;36.25;;;;;7.85;68.99;101104.34;4996304;28;45823;-78
2021/11/12 10:32:05;;;;;;;;;36.50;31.00;;;;;7.90;68.81;101106.72;4996307;28;45565;-76
2021/11/12 10:34:36;;;;;;;;;37.00;31.00;;;;;7.94;68.75;101098.63;5013811;28;47468;-77
2021/11/12 10:37:01;;;;;;;;;39.50;35.00;;;;;7.97;68.57;101093.28;5013060;28;46029;-75
2021/11/12 10:39:32;;;;;;;;;38.00;31.50;;;;;8.01;68.67;101104.38;5012815;28;46160;-74
2021/11/12 10:42:04;;;;;;;;;38.50;33.00;;;;;8.02;68.73;101130.41;5013300;28;45659;-74
2021/11/12 10:44:33;;;;;;;;;35.75;30.25;;;;;7.97;68.63;101127.19;5013278;28;45843;-80
2021/11/12 10:47:02;;;;;;;;;42.75;35.50;;;;;7.93;68.77;101117.84;5013557;28;46713;-80
2021/11/12 10:49:34;;;;;;;;;33.50;27.75;;;;;7.99;68.70;101114.06;5014907;28;45787;-76
2021/11/12 10:52:03;;;;;;;;;35.50;31.00;;;;;7.98;68.86;101104.56;5016553;28;45532;-77
2021/11/12 10:54:45;;;;;;;;;35.75;32.25;;;;;8.00;68.80;101082.66;5015066;28;47016;-76
2021/11/12 10:57:12;;;;;;;;;37.00;32.75;;;;;7.91;68.96;101038.81;5012671;28;46137;-74
2021/11/12 11:00:10;;;;;;;;;46.25;35.50;;;;;8.01;68.89;101044.38;5012742;28;45974;-74
2021/11/12 11:02:36;;;;;;;;;45.00;36.75;;;;;8.09;68.81;101057.03;5013895;28;45717;-77
2021/11/12 11:05:08;;;;;;;;;41.00;34.50;;;;;8.01;68.72;101024.34;5016807;28;46356;-77
2021/11/12 11:07:35;;;;;;;;;41.50;37.50;;;;;8.14;68.96;101031.53;5016174;28;46399;-75
2021/11/12 11:10:04;;;;;;;;;52.75;39.50;;;;;8.17;68.89;101042.63;5016395;28;45599;-75
2021/11/12 11:12:34;;;;;;;;;41.50;36.00;;;;;8.20;68.93;101039.88;5016789;28;45806;-76
2021/11/12 11:15:15;;;;;;;;;41.50;35.50;;;;;8.24;68.90;101023.09;5016179;28;46008;-76
2021/11/12 11:17:44;;;;;;;;;43.50;38.00;;;;;8.26;68.73;101029.06;5016174;28;45592;-76
2021/11/12 11:20:14;;;;;;;;;43.00;36.25;;;;;8.30;68.53;101048.06;5016157;28;45878;-73
2021/11/12 11:22:54;;;;;;;;;43.00;39.25;;;;;8.25;69.01;101040.47;5016282;28;45604;-77
2021/11/12 11:25:23;;;;;;;;;40.75;37.00;;;;;8.24;68.84;101025.72;5015899;28;46411;-74
2021/11/12 11:27:49;;;;;;;;;42.25;36.25;;;;;8.34;68.61;101033.91;5015913;28;46108;-78
2021/11/12 11:30:15;;;;;;;;;42.25;34.75;;;;;8.40;68.85;101036.19;5015976;28;45943;-79
2021/11/12 11:32:46;;;;;;;;;37.75;34.75;;;;;8.47;68.85;101032.31;5015917;28;45793;-76
2021/11/12 11:35:13;;;;;;;;;47.75;38.25;;;;;8.47;68.90;101029.72;5015827;28;45783;-77
2021/11/12 11:37:39;;;;;;;;;47.75;38.25;;;;;8.60;68.75;101048.13;4997675;28;46581;-77
2021/11/12 11:40:09;;;;;;;;;44.00;36.50;;;;;8.65;68.92;101046.94;5015717;28;45900;-78
2021/11/12 11:42:37;;;;;;;;;48.50;39.25;;;;;8.72;68.57;101019.56;5016046;28;45636;-77
2021/11/12 11:45:04;;;;;;;;;43.00;37.25;;;;;8.79;68.74;101026.13;5015933;28;46970;-77
2021/11/12 11:47:30;;;;;;;;;45.75;40.00;;;;;8.86;68.68;101042.28;4997403;28;48634;-76
2021/11/12 11:49:56;;;;;;;;;49.50;40.50;;;;;8.65;69.19;101001.69;5015555;28;45886;-77
2021/11/12 11:52:30;;;;;;;;;49.25;42.00;;;;;8.95;68.67;101022.63;5015374;28;45667;-77
2021/11/12 11:54:56;;;;;;;;;48.00;38.75;;;;;9.12;68.86;101051.25;5015510;28;45545;-79
2021/11/12 11:57:25;;;;;;;;;45.00;37.00;;;;;9.18;68.47;101027.34;5015118;28;45520;-79
2021/11/12 12:00:21;;;;;;;;;42.75;37.25;;;;;9.34;68.34;101032.53;5014888;28;45914;-76
2021/11/12 12:02:47;;;;;;;;;55.00;44.00;;;;;9.19;68.04;100980.22;5015514;28;45818;-78
2021/11/12 12:05:14;;;;;;;;;54.25;42.00;;;;;9.49;67.78;101005.47;5015304;28;46406;-78
2021/11/12 12:07:51;;;;;;;;;51.25;40.25;;;;;9.69;67.49;101011.19;5015068;28;45980;-75
2021/11/12 12:10:27;;;;;;;;;48.00;41.50;;;;;9.81;67.46;101006.13;5014726;28;45752;-77
2021/11/12 12:12:55;;;;;;;;;47.00;39.75;;;;;9.93;67.25;101000.97;5015413;28;45552;-77
2021/11/12 12:15:20;;;;;;;;;48.75;39.25;;;;;10.04;66.98;100995.09;5014371;28;45678;-75
2021/11/12 12:18:07;;;;;;;;;48.33;40.67;;;;;10.17;66.82;100988.16;5014415;28;47311;-75
2021/11/12 13:25:48;;;;;;;;;36.50;33.00;;;;;11.99;64.37;100896.22;5013657;28;46232;-76
2021/11/12 13:28:16;;;;;;;;;34.50;31.25;;;;;12.04;64.28;100892.31;5013028;28;45938;-75
2021/11/12 13:34:17;;;;;;;;;36.00;32.75;;;;;12.04;64.49;100873.09;5005294;28;46181;-75
2021/11/12 13:36:43;;;;;;;;;32.25;29.75;;;;;12.14;64.37;100887.25;4996144;28;46566;-74
2021/11/12 13:39:19;;;;;;;;;37.50;32.75;;;;;12.17;64.69;100882.59;5013670;28;45631;-76
2021/11/12 13:41:55;;;;;;;;;32.00;29.00;;;;;12.22;64.39;100868.28;5014183;28;45758;-75
2021/11/12 13:44:29;;;;;;;;;34.75;32.75;;;;;12.25;64.66;100866.28;5013526;28;46420;-74
2021/11/12 13:46:56;;;;;;;;;31.75;30.25;;;;;12.31;64.76;100878.13;5013325;28;47267;-75
2021/11/12 13:49:36;;;;;;;;;33.75;30.25;;;;;12.32;64.59;100864.84;5013621;28;46089;-77
2021/11/12 13:52:28;;;;;;;;;34.00;31.25;;;;;12.36;64.89;100863.66;5014079;28;45877;-76
2021/11/12 13:55:03;;;;;;;;;29.00;28.00;;;;;12.42;64.80;100862.38;5013771;28;46397;-76
2021/11/12 13:57:28;;;;;;;;;29.50;28.00;;;;;12.41;64.67;100848.44;5013061;28;46487;-74
2021/11/12 14:00:03;;;;;;;;;36.50;31.00;;;;;12.51;64.73;100845.94;5013833;28;45747;-76
2021/11/12 14:02:30;;;;;;;;;34.00;31.50;;;;;12.53;64.87;100849.28;5015278;28;45745;-74
2021/11/12 14:05:12;;;;;;;;;36.50;30.50;;;;;12.63;64.58;100858.97;5014952;28;46603;-76
2021/11/12 14:07:39;;;;;;;;;31.00;28.50;;;;;12.66;64.55;100863.19;5015152;28;47080;-75
2021/11/12 14:10:08;;;;;;;;;34.50;32.50;;;;;12.73;64.52;100856.50;5014031;28;45636;-77
2021/11/12 14:12:34;;;;;;;;;33.00;31.25;;;;;12.77;64.41;100846.59;5013667;28;45834;-77
2021/11/12 14:15:16;;;;;;;;;30.50;28.25;;;;;12.79;64.27;100839.44;5013579;28;47425;-75
2021/11/12 14:18:00;;;;;;;;;33.00;31.50;;;;;12.86;64.02;100833.56;5013164;28;47178;-77
2021/11/12 14:20:30;;;;;;;;;34.50;31.00;;;;;12.97;64.02;100832.75;5013373;28;45918;-79
2021/11/12 14:23:21;;;;;;;;;41.25;33.00;;;;;13.03;64.09;100832.25;5013463;28;45813;-77
2021/11/12 14:29:03;;;;;;;;;33.75;30.75;;;;;13.10;63.92;100827.38;5013068;28;46169;-78
2021/11/12 14:31:44;;;;;;;;;38.75;34.50;;;;;13.20;63.44;100837.09;5012558;28;45691;-78
2021/11/12 14:37:15;;;;;;;;;39.25;35.50;;;;;13.07;63.23;100796.03;4951596;28;45628;-78
2021/11/12 14:40:01;;;;;;;;;42.25;35.50;;;;;13.37;63.20;100841.88;4951232;28;46178;-76
2021/11/12 14:50:52;;;;;;;;;37.75;29.50;;;;;13.53;63.21;100832.75;4951509;28;46194;-76
2021/11/12 14:55:54;;;;;;;;;35.25;33.75;;;;;13.57;62.36;100810.47;4951849;28;45681;-76
2021/11/12 14:58:20;;;;;;;;;32.25;29.00;;;;;13.67;62.52;100824.56;4951061;28;46487;-75
2021/11/12 15:04:07;;;;;;;;;24.50;23.00;;;;;13.71;61.58;100836.56;4951775;28;45587;-77
2021/11/12 15:06:34;;;;;;;;;17.50;16.50;;;;;13.73;60.71;100830.19;4952093;28;45740;-75
2021/11/12 15:09:36;;;;;;;;;18.00;16.00;;;;;13.78;60.37;100846.44;4951618;28;45956;-77
2021/11/12 15:11:53;;;;;;;;;14.25;14.00;;;;;13.81;60.03;100842.75;4949549;28;45904;-78
2021/11/12 15:14:30;;;;;;;;;14.50;14.00;;;;;13.79;59.41;100842.03;4987949;28;45709;-77
2021/11/12 15:20:19;;;;;;;;;14.75;13.25;;;;;13.91;59.33;100835.78;5012217;28;45486;-78
2021/11/12 15:30:25;;;;;;;;;17.50;16.00;;;;;15.18;57.11;100815.38;5012521;28;46436;-77
2021/11/12 15:33:13;;;;;;;;;14.75;14.00;;;;;15.30;56.71;100832.78;5009819;28;46132;-74
2021/11/12 15:35:39;;;;;;;;;14.50;14.00;;;;;15.28;56.41;100829.44;5010208;28;46008;-79
2021/11/12 15:38:32;;;;;;;;;15.50;14.75;;;;;15.31;56.30;100840.59;5010338;28;45660;-77
2021/11/12 15:41:04;;;;;;;;;17.25;15.50;;;;;15.27;56.53;100831.28;5009617;28;45829;-77
2021/11/12 15:43:40;;;;;;;;;16.00;15.00;;;;;15.34;56.23;100839.47;5010014;28;47039;-77
2021/11/12 15:46:13;;;;;;;;;14.25;14.00;;;;;15.35;56.25;100830.59;5009408;28;45728;-76
2021/11/12 15:48:40;;;;;;;;;19.00;17.75;;;;;15.40;56.08;100838.94;5009579;28;45700;-75
2021/11/12 15:51:26;;;;;;;;;15.50;15.50;;;;;15.40;56.09;100841.56;5011270;28;46647;-76
2021/11/12 16:14:46;;;;;;;;;16.50;15.75;;;;;14.77;57.28;100862.00;5015025;28;45873;-77
2021/11/12 16:17:28;;;;;;;;;14.75;14.25;;;;;14.68;57.25;100863.56;5014924;28;45680;-76
2021/11/12 16:20:46;;;;;;;;;19.00;16.50;;;;;14.64;57.12;100866.59;5015360;28;45949;-76
2021/11/12 16:25:25;;;;;;;;;24.00;20.50;;;;;14.52;57.22;100871.09;5014874;28;46201;-77
2021/11/12 16:27:54;;;;;;;;;24.50;19.50;;;;;14.47;57.78;100864.53;5014514;28;45654;-81
2021/11/12 16:33:41;;;;;;;;;19.75;18.75;;;;;14.35;58.16;100871.66;5014605;28;45564;-78
2021/11/12 16:36:08;;;;;;;;;20.00;18.00;;;;;14.30;57.99;100877.28;5014370;28;47189;-79
2021/11/12 16:38:35;;;;;;;;;19.25;18.50;;;;;14.24;58.71;100864.63;5014616;28;45569;-76
2021/11/12 16:49:54;;;;;;;;;22.75;20.00;;;;;14.12;58.60;100855.09;5016567;28;45706;-79
2021/11/12 16:55:30;;;;;;;;;27.00;23.00;;;;;14.08;58.79;100860.75;4954153;28;46215;-81
2021/11/12 17:03:07;;;;;;;;;29.00;24.75;;;;;13.80;59.26;100848.97;4953017;28;45693;-76
2021/11/12 17:05:37;;;;;;;;;27.00;25.50;;;;;13.74;59.46;100847.66;4952852;28;46811;-76
2021/11/12 17:10:49;;;;;;;;;32.25;29.25;;;;;13.69;59.87;100856.91;4952866;28;45733;-77
2021/11/12 17:18:23;;;;;;;;;23.50;22.25;;;;;13.59;60.41;100840.16;4952366;28;46109;-76
2021/11/12 17:21:15;;;;;;;;;28.50;25.25;;;;;13.55;60.03;100825.56;4953053;28;45999;-76
2021/11/12 17:48:18;;;;;;;;;27.25;23.75;;;;;13.01;62.15;100803.44;4933067;28;46245;-77
2021/11/12 17:51:06;;;;;;;;;21.25;20.00;;;;;13.01;62.50;100797.34;4932972;28;46600;-76
2021/11/12 17:54:07;;;;;;;;;25.50;24.25;;;;;12.97;62.81;100796.75;4933333;28;45896;-78
2021/11/12 18:05:27;;;;;;;;;25.00;22.50;;;;;12.99;63.60;100800.13;4932925;28;46095;-77
2021/11/12 18:16:16;;;;;;;;;26.25;24.25;;;;;13.03;63.84;100821.75;4932815;28;45663;-77
2021/11/12 21:45:12;;;;;;;;;32.25;30.25;;;;;12.61;72.53;100791.72;5021236;28;45583;-85
2021/11/12 21:51:01;;;;;;;;;30.75;26.25;;;;;12.64;72.36;100794.09;5024178;28;45619;-85